Conway, Michigan
Current Conditions -  °F | °C
As of 11:34 AM on Saturday 22 Nov 2014 (Local Time) from KMGN Reporting Station
Overcast Overcast  
Wind Chill: 29°   Ceiling: 600
Heat Index: 37°   Visibility: 7mi
Dew Point: 35°   Wind: 12mph
Humidity: 92%   Direction: 220°SW
Pressure: 29.81"   Gusts: 20mph
Location:  45.42°N, 84.87°W
Report Text: KMGN 221634Z AUTO 22010G17KT 7SM OVC006 02/01 A2981 RMK AO2 T00270015
Loading
Personal Weather Stations






























Interactive Weather Map New forecast layout! Learn more

10-Day Weather Forecast

Advertisements
Track Severe Weather on mobile